Latest Weather Observations for Gatton

IDQ60901

Issued at 6:05 pm EST Monday 20 October 2014 (issued every 10 minutes, with the page automatically refreshed every 10 minutes)

About weather observations | Map of Brisbane area stations | Latest observations for Brisbane area | Other Formats
Station Details ID: 040082 Name: UNIVERSITY OF QUEENSLAND GATTON Lat: -27.54 Lon: 152.34 Height: 89.0 m
Data from the previous 72 hours. | See also: Recent months at Gatton
Date/Time
EST
Tmp

°C
App
Tmp
°C
Dew
Point
°C
Rel
Hum
%
Delta-T

°C
Wind Press
QNH
hPa
Press
MSL
hPa
Rain
since
9 am
mm
Dir
 
Spd
km/h
Gust
km/h
Spd
kts
Gust
kts
20/06:00pm 24.6 21.1 10.8 42 7.7 E 20 28 11 15 - - 0.0
20/05:30pm 26.3 21.2 10.5 37 8.9 E 28 35 15 19 - - 0.0
20/05:00pm 28.3 24.2 10.0 32 10.3 E 22 32 12 17 - - 0.0
20/04:30pm 29.3 26.0 9.4 29 11.1 E 17 26 9 14 - - 0.0
20/04:00pm 29.7 26.8 9.8 29 11.2 E 15 24 8 13 - - 0.0
20/03:30pm 30.1 26.1 9.1 27 11.7 ESE 20 28 11 15 - - 0.0
20/03:00pm 30.2 26.6 9.7 28 11.6 ESE 19 28 10 15 - - 0.0
20/02:30pm 30.0 27.4 9.5 28 11.5 E 13 24 7 13 - - 0.0
20/02:00pm 29.3 27.4 10.4 31 10.8 ENE 11 20 6 11 - - 0.0
20/01:30pm 28.7 27.3 10.8 33 10.2 E 9 13 5 7 - - 0.0
20/01:00pm 27.4 25.7 9.7 33 9.9 NE 9 19 5 10 - - 0.0
20/12:30pm 27.3 25.3 10.1 34 9.6 E 11 17 6 9 - - 0.0
20/12:00pm 26.8 24.9 10.5 36 9.2 NE 11 17 6 9 - - 0.0
20/11:30am 26.2 25.0 11.5 40 8.4 ENE 9 17 5 9 - - 0.0
20/11:00am 25.0 23.9 11.9 44 7.5 E 9 17 5 9 - - 0.0
20/10:30am 23.6 22.8 11.6 47 6.8 ENE 7 17 4 9 - - 0.0
20/10:00am 22.9 22.1 11.6 49 6.4 SSE 7 11 4 6 - - 0.0
20/09:30am 22.4 21.6 11.8 51 6.0 ENE 7 15 4 8 - - 0.0
20/09:00am 21.9 21.3 12.2 54 5.5 NE 7 13 4 7 - - 0.0
20/08:30am 20.9 20.4 12.1 57 4.9 NNE 6 9 3 5 - - 0.0
20/08:00am 19.1 18.3 11.7 62 4.1 W 7 11 4 6 - - 0.0
20/07:30am 17.5 16.2 11.3 67 3.4 W 9 13 5 7 - - 0.0
20/07:00am 16.3 14.7 11.5 73 2.6 W 11 15 6 8 - - 0.0
20/06:30am 14.4 12.5 10.6 78 2.0 W 11 15 6 8 - - 0.0
20/06:00am 12.4 10.8 10.1 86 1.2 W 9 13 5 7 - - 0.0
20/05:30am 11.2 9.4 9.5 89 0.9 W 9 11 5 6 - - 0.0
20/05:00am 10.6 8.9 8.5 87 1.0 W 7 11 4 6 - - 0.0
20/04:30am 10.8 9.2 8.6 86 1.1 WSW 7 9 4 5 - - 0.0
20/04:00am 11.1 9.6 9.2 88 1.0 WSW 7 9 4 5 - - 0.0
20/03:30am 11.3 9.4 8.9 85 1.2 WSW 9 11 5 6 - - 0.0
20/03:00am 10.6 8.9 8.2 85 1.2 WSW 7 9 4 5 - - 0.0
20/02:30am 11.0 10.7 8.6 85 1.2 CALM 0 0 0 0 - - 0.0
20/02:00am 11.5 11.3 9.1 85 1.2 CALM 0 0 0 0 - - 0.0
20/01:30am 11.9 11.7 8.9 82 1.5 CALM 0 0 0 0 - - 0.0
20/01:00am 12.5 12.4 9.5 82 1.5 CALM 0 0 0 0 - - 0.0
20/12:30am 12.6 12.4 8.9 78 1.9 CALM 0 0 0 0 - - 0.0
20/12:00am 14.4 14.4 9.8 74 2.4 CALM 0 4 0 2 - - 0.0
 
Date/Time
EST
Tmp

°C
App
Tmp
°C
Dew
Point
°C
Rel
Hum
%
Delta-T

°C
Wind Press
QNH
hPa
Press
MSL
hPa
Rain
since
9 am
mm
Dir
 
Spd
km/h
Gust
km/h
Spd
kts
Gust
kts
19/11:30pm 15.5 13.9 10.1 70 2.8 SSE 9 11 5 6 - - 0.0
19/11:00pm 16.0 14.0 10.3 69 3.0 SSE 11 13 6 7 - - 0.0
19/10:30pm 16.2 14.7 10.5 69 3.0 SSE 9 11 5 6 - - 0.0
19/10:00pm 16.5 14.9 10.1 66 3.4 SSE 9 11 5 6 - - 0.0
19/09:30pm 17.0 15.1 10.6 66 3.4 SE 11 13 6 7 - - 0.0
19/09:00pm 16.9 15.3 10.3 65 3.5 ESE 9 13 5 7 - - 0.0
19/08:30pm 18.2 15.9 10.6 61 4.1 E 13 22 7 12 - - 0.0
19/08:00pm 19.2 16.4 11.3 60 4.3 E 17 24 9 13 - - 0.0
19/07:30pm 19.5 16.7 11.3 59 4.5 E 17 24 9 13 - - 0.0
19/07:00pm 19.7 17.2 11.2 58 4.7 E 15 20 8 11 - - 0.0
19/06:30pm 21.3 18.0 11.6 54 5.4 ENE 20 28 11 15 - - 0.0
19/06:00pm 22.4 18.3 11.5 50 6.1 ENE 24 33 13 18 - - 0.0
19/05:30pm 23.9 19.9 11.9 47 6.8 ENE 24 33 13 18 - - 0.0
19/05:00pm 25.8 22.2 10.4 38 8.6 ENE 20 28 11 15 - - 0.0
19/04:30pm 27.2 23.1 6.0 26 11.1 E 17 26 9 14 - - 0.0
19/04:00pm 28.0 23.6 6.7 26 11.3 SE 19 24 10 13 - - 0.0
19/03:30pm 27.0 23.3 6.4 27 10.8 ENE 15 26 8 14 - - 0.0
19/03:00pm 27.5 23.3 7.4 28 10.8 E 19 24 10 13 - - 0.0
19/02:30pm 27.0 22.8 7.5 29 10.4 SE 19 30 10 16 - - 0.0
19/02:00pm 27.5 23.5 8.4 30 10.4 E 19 28 10 15 - - 0.0
19/01:30pm 26.4 22.3 7.9 31 9.9 S 19 30 10 16 - - 0.0
19/01:00pm 26.9 24.2 8.8 32 9.9 SE 13 30 7 16 - - 0.0
19/12:30pm 26.3 23.2 8.8 33 9.6 SSE 15 28 8 15 - - 0.0
19/12:00pm 26.0 23.8 9.4 35 9.1 E 11 20 6 11 - - 0.0
19/11:30am 24.3 21.6 9.1 38 8.3 ESE 13 28 7 15 - - 0.0
19/11:00am 24.5 21.9 9.3 38 8.3 E 13 22 7 12 - - 0.0
19/10:30am 23.5 21.2 9.1 40 7.8 E 11 22 6 12 - - 0.0
19/10:00am 23.4 20.4 9.4 41 7.6 ESE 15 20 8 11 - - 0.0
19/09:30am 23.6 21.0 10.6 44 7.2 E 15 28 8 15 - - 0.0
19/09:00am 22.7 19.4 10.8 47 6.6 ENE 19 24 10 13 - - 0.0
19/08:30am 21.2 18.7 11.0 52 5.6 E 15 22 8 12 - - 0.0
19/08:00am 20.2 17.5 11.7 58 4.7 ESE 17 20 9 11 - - 0.0
19/07:30am 18.2 17.9 11.5 65 3.7 S 4 9 2 5 - - 0.0
19/07:00am 16.3 15.8 12.1 76 2.3 SW 6 9 3 5 - - 0.0
19/06:30am 14.2 13.3 11.4 83 1.5 W 7 11 4 6 - - 0.0
19/06:00am 12.5 11.5 10.9 90 0.8 WSW 7 9 4 5 - - 0.0
19/05:30am 10.9 9.6 10.0 94 0.5 W 7 9 4 5 - - 0.0
19/05:00am 9.3 7.6 7.6 89 0.8 W 6 7 3 4 - - 0.0
19/04:30am 9.9 8.4 8.3 90 0.8 WSW 6 7 3 4 - - 0.0
19/04:00am 10.2 9.9 8.5 89 0.8 CALM 0 0 0 0 - - 0.0
19/03:30am 10.4 10.1 8.7 89 0.8 CALM 0 0 0 0 - - 0.0
19/03:00am 10.8 10.6 9.2 90 0.8 CALM 0 4 0 2 - - 0.0
19/02:30am 11.2 11.0 9.1 87 1.1 CALM 0 0 0 0 - - 0.0
19/02:00am 12.3 11.4 10.5 89 0.9 W 6 7 3 4 - - 0.0
19/01:30am 12.1 12.2 10.2 88 1.0 CALM 0 0 0 0 - - 0.0
19/01:00am 11.9 11.8 9.5 85 1.2 CALM 0 0 0 0 - - 0.0
19/12:30am 12.0 11.8 9.2 83 1.4 CALM 0 0 0 0 - - 0.0
19/12:00am 12.5 12.0 7.8 73 2.3 CALM 0 0 0 0 - - 0.0
 
Date/Time
EST
Tmp

°C
App
Tmp
°C
Dew
Point
°C
Rel
Hum
%
Delta-T

°C
Wind Press
QNH
hPa
Press
MSL
hPa
Rain
since
9 am
mm
Dir
 
Spd
km/h
Gust
km/h
Spd
kts
Gust
kts
18/11:30pm 13.1 12.9 9.0 76 2.1 CALM 0 0 0 0 - - 0.0
18/11:00pm 14.6 15.0 11.2 80 1.8 CALM 0 0 0 0 - - 0.0
18/10:30pm 14.9 15.1 10.7 76 2.2 CALM 0 0 0 0 - - 0.0
18/10:00pm 15.9 14.9 10.9 72 2.7 E 7 9 4 5 - - 0.0
18/09:30pm 17.0 15.4 11.5 70 3.0 ENE 11 13 6 7 - - 0.0
18/09:00pm 18.1 16.2 11.7 66 3.5 ENE 13 19 7 10 - - 0.0
18/08:30pm 18.9 16.7 12.2 65 3.7 ENE 15 20 8 11 - - 0.0
18/08:00pm 19.3 15.4 12.1 63 4.0 ENE 24 33 13 18 - - 0.0
18/07:30pm 19.5 15.6 12.0 62 4.2 ENE 24 35 13 19 - - 0.0
18/07:00pm 19.6 16.1 12.1 62 4.2 E 22 32 12 17 - - 0.0
18/06:30pm 20.1 16.0 11.6 58 4.7 E 24 30 13 16 - - 0.0
18/06:00pm 21.3 17.6 11.6 54 5.4 E 22 30 12 16 - - 0.0
18/05:30pm 22.4 17.6 11.5 50 6.1 E 28 35 15 19 - - 0.0
18/05:00pm 23.4 19.5 10.8 45 7.0 E 22 28 12 15 - - 0.0
18/04:30pm 25.6 21.4 9.8 37 8.7 E 22 30 12 16 - - 0.0
18/04:00pm 26.5 22.7 9.8 35 9.3 ESE 20 32 11 17 - - 0.0
18/03:30pm 25.5 20.6 8.5 34 9.2 ESE 24 35 13 19 - - 0.0
18/03:00pm 27.6 23.8 7.5 28 10.8 ESE 17 28 9 15 - - 0.0
18/02:30pm 27.8 23.5 5.4 24 11.6 E 17 26 9 14 - - 0.0
18/02:00pm 27.2 22.3 7.1 28 10.7 E 22 30 12 16 - - 0.0
18/01:30pm 26.7 23.2 7.2 29 10.4 SE 15 28 8 15 - - 0.0
18/01:00pm 26.4 22.3 7.9 31 9.9 ENE 19 26 10 14 - - 0.0
18/12:30pm 25.9 22.0 8.8 34 9.3 SSE 19 28 10 15 - - 0.0
18/12:00pm 25.7 22.3 9.1 35 9.1 SSE 17 24 9 13 - - 0.0
18/11:30am 25.4 22.8 9.3 36 8.8 ESE 13 20 7 11 - - 0.0
18/11:00am 25.3 21.9 10.4 39 8.3 SE 19 28 10 15 - - 0.0
18/10:30am 24.3 20.7 9.8 40 8.0 E 19 30 10 16 - - 0.0
18/10:00am 23.6 20.1 10.3 43 7.3 ESE 19 30 10 16 - - 0.0
18/09:30am 22.6 19.2 10.7 47 6.6 SE 19 26 10 14 - - 0.0
18/09:00am 22.0 18.0 10.5 48 6.3 SE 22 30 12 16 - - 0.0
18/08:30am 22.5 19.3 11.9 51 6.0 ESE 20 28 11 15 - - 0.0
18/08:00am 20.9 17.7 11.3 54 5.3 SSE 19 26 10 14 - - 0.0
18/07:30am 19.2 16.2 10.5 57 4.7 SE 17 20 9 11 - - 0.0
18/07:00am 18.2 15.2 10.8 62 4.0 SSE 17 26 9 14 - - 0.0
18/06:30am 16.9 16.0 11.2 69 3.1 S 7 11 4 6 - - 0.0
18/06:00am 15.7 14.6 11.9 78 2.1 SSE 9 15 5 8 - - 0.0
18/05:30am 13.0 12.9 9.4 79 1.8 CALM 0 0 0 0 - - 0.0
18/05:00am 14.8 13.7 10.8 77 2.1 S 7 11 4 6 - - 0.0
18/04:30am 15.1 13.8 11.3 78 2.0 SSE 9 15 5 8 - - 0.0
18/04:00am 14.8 13.8 11.0 78 2.0 SSE 7 11 4 6 - - 0.0
18/03:30am 15.4 14.3 10.8 74 2.5 SSE 7 11 4 6 - - 0.0
18/03:00am 16.3 14.2 11.2 72 2.8 SSE 13 19 7 10 - - 0.0
18/02:30am 16.7 13.9 11.4 71 2.9 SSE 17 26 9 14 - - 0.0
18/02:00am 16.8 14.8 11.5 71 2.9 SE 13 20 7 11 - - 0.0
18/01:30am 17.2 15.2 11.5 69 3.1 SE 13 19 7 10 - - 0.0
18/01:00am 17.8 14.6 11.8 68 3.3 SE 20 28 11 15 - - 0.0
18/12:30am 17.6 15.7 11.8 69 3.2 SE 13 20 7 11 - - 0.0
18/12:00am 17.8 16.2 11.6 67 3.4 SSE 11 17 6 9 - - 0.0
 
Date/Time
EST
Tmp

°C
App
Tmp
°C
Dew
Point
°C
Rel
Hum
%
Delta-T

°C
Wind Press
QNH
hPa
Press
MSL
hPa
Rain
since
9 am
mm
Dir
 
Spd
km/h
Gust
km/h
Spd
kts
Gust
kts
17/11:30pm 17.7 16.6 11.9 69 3.2 SSE 9 15 5 8 - - 0.0
17/11:00pm 18.1 17.3 12.8 71 3.0 SSE 9 11 5 6 - - 0.0
17/10:30pm 17.9 17.0 12.6 71 3.0 SE 9 11 5 6 - - 0.0
17/10:00pm 19.0 17.8 14.1 73 2.8 ESE 13 17 7 9 - - 0.0
17/09:30pm 19.3 18.4 14.8 75 2.6 ESE 13 19 7 10 - - 0.0
17/09:00pm 19.7 18.4 14.7 73 2.9 ESE 15 20 8 11 - - 0.0
17/08:30pm 19.9 18.6 14.7 72 3.0 ESE 15 20 8 11 - - 0.0
17/08:00pm 20.5 18.6 14.2 67 3.7 ESE 17 22 9 12 - - 0.0
17/07:30pm 21.1 18.5 13.8 63 4.2 SE 20 30 11 16 - - 0.0
17/07:00pm 21.9 18.2 12.7 56 5.3 SE 24 33 13 18 - - 0.0
17/06:30pm 22.8 18.4 11.8 50 6.2 ESE 26 39 14 21 - - 0.0

Latest Capital City Observations: Canberra | Sydney | Melbourne | Brisbane | Adelaide | Perth | Hobart | Darwin

Other Formats:

Comma delimited format used in spreadsheet applications
http://www.bom.gov.au/fwo/IDQ60901/IDQ60901.94562.axf

JavaScript Object Notation format (JSON) in row-major order
http://www.bom.gov.au/fwo/IDQ60901/IDQ60901.94562.json